Bezoek onze andere website:

Template documentation
and downloads

And another site



METAR rapporten vliegvelden

   
EBAW - Antwerp
Gewijzigd: 21-04-2018 16:50
Helder  
Helder  
   Wind: NNO 7.4 km/h
Wind: NNO 7.4 km/h
Temperatuur: 23°C
Dauwpunt: 12°C
Vochtigheid: 50%
Barometer: 1019 hPa
Zicht: meer dan 10 km
Bewolking: Helder
EBAW 211450Z 03004KT 350V080 CAVOK 23/12 Q1019 NOSIG
EBLG - Li├Ęge
Gewijzigd: 21-04-2018 16:50
Gedeeltelijk bewolkt  
Gedeeltelijk bewolkt  
   Wind: NNO 11.1 km/h
Wind: NNO 11.1 km/h
Temperatuur: 22°C
Dauwpunt: 12°C
Vochtigheid: 53%
Barometer: 1019 hPa
Bewolking: Gedeeltelijk bewolkt
Zicht: 9 km
Bewolking: Gedeeltelijk bewolkt
EBLG 211450Z 02006KT 340V060 9000 NSC 22/12 Q1019 NOSIG
EBCV - Mons/Bergen
Gewijzigd: 21-04-2018 17:05
Helder  
Helder  
   Wind: NNO 9.3 km/h
Wind: NNO 9.3 km/h
Temperatuur: 23°C
Dauwpunt: 11°C
Vochtigheid: 47%
Barometer: 1019 hPa
Bewolking: Helder
Zicht: 7 km
Bewolking: Helder
EBCV 211505Z AUTO 03005KT 7000 NCD 23/11 Q1019 WHT
EHBK - Maastricht
Gewijzigd: 21-04-2018 16:55
Helder  
Helder  
   Wind: ONO 11.1 km/h
Wind: ONO 11.1 km/h
Temperatuur: 23°C
Dauwpunt: 12°C
Vochtigheid: 50%
Barometer: 1019 hPa
Bewolking: Helder
Zicht: meer dan 10 km
Bewolking: Helder
EHBK 211455Z AUTO 06006KT 020V110 9999 NCD 23/12 Q1019 NOSIG
ELLX - Luxemburg
Gewijzigd: 21-04-2018 16:50
Helder  
Helder  
   Wind: ZW 7.4 km/h
Wind: ZW 7.4 km/h
Temperatuur: 26°C
Dauwpunt: 7°C
Vochtigheid: 30%
Barometer: 1019 hPa
Zicht: meer dan 10 km
Bewolking: Helder
ELLX 211450Z 22004KT 130V300 CAVOK 26/07 Q1019 NOSIG
EBOS - Oostende
Gewijzigd: 21-04-2018 16:50
Helder  
Helder  
   Wind: NNO 16.7 km/h
Wind: NNO 16.7 km/h
Temperatuur: 19°C
Dauwpunt: 12°C
Vochtigheid: 64%
Barometer: 1020 hPa
Zicht: meer dan 10 km
Bewolking: Helder
EBOS 211450Z 03009KT CAVOK 19/12 Q1020 NOSIG

Script ontwikkeld door  Saratoga-weather.org Aangepast voor de template door  Weerstation Leuven